createdAt,value
2022-09-23T00:01:55.617Z,99669.87
2022-09-23T00:04:26.351Z,99667.81
2022-09-23T00:06:57.298Z,99667.89
2022-09-23T00:09:28.047Z,99671.05
2022-09-23T00:12:00.213Z,99667.52
2022-09-23T00:14:31.145Z,99664.48
2022-09-23T00:17:01.840Z,99661.95
2022-09-23T00:19:32.926Z,99660.46
2022-09-23T00:22:03.862Z,99660.13
2022-09-23T00:24:34.849Z,99660.13
2022-09-23T00:27:06.164Z,99658.30
2022-09-23T00:29:37.031Z,99660.39
2022-09-23T00:32:08.239Z,99655.33
2022-09-23T00:34:39.254Z,99654.39
2022-09-23T00:37:09.937Z,99651.40
2022-09-23T00:39:40.875Z,99650.11
2022-09-23T00:42:16.807Z,99650.61
2022-09-23T00:44:51.194Z,99650.27
2022-09-23T00:47:26.064Z,99648.95
2022-09-23T00:50:03.947Z,99650.41
2022-09-23T00:52:35.008Z,99650.75
2022-09-23T00:55:10.623Z,99643.48
2022-09-23T00:57:47.101Z,99640.93
2022-09-23T01:00:17.877Z,99637.05
2022-09-23T01:02:48.892Z,99632.35
2022-09-23T01:05:20.423Z,99631.22
2022-09-23T01:07:54.899Z,99626.08
2022-09-23T01:10:28.419Z,99625.15
2022-09-23T01:13:21.227Z,99622.63
2022-09-23T01:16:01.695Z,99622.63
2022-09-23T01:18:43.485Z,99622.66
2022-09-23T01:21:31.653Z,99623.80
2022-09-23T01:24:47.148Z,99621.36
2022-09-23T01:27:37.694Z,99617.52
2022-09-23T01:30:21.282Z,99620.38
2022-09-23T01:33:12.436Z,99618.91
2022-09-23T01:36:03.122Z,99620.22
2022-09-23T01:38:44.001Z,99619.98
2022-09-23T01:41:26.697Z,99617.41
2022-09-23T01:44:05.195Z,99617.52
2022-09-23T01:46:41.880Z,99620.39
2022-09-23T01:49:19.068Z,99623.54
2022-09-23T01:51:55.228Z,99628.80
2022-09-23T01:54:32.315Z,99626.55
2022-09-23T01:57:06.358Z,99628.23
2022-09-23T01:59:40.279Z,99624.61
2022-09-23T02:02:16.785Z,99622.20
2022-09-23T02:04:54.254Z,99623.36
2022-09-23T02:07:29.381Z,99619.50
2022-09-23T02:10:06.753Z,99617.91
2022-09-23T02:12:40.443Z,99612.19
2022-09-23T02:15:15.881Z,99609.13
2022-09-23T02:17:50.835Z,99607.76
2022-09-23T02:20:25.451Z,99610.98
2022-09-23T02:23:03.129Z,99608.10
2022-09-23T02:25:41.409Z,99605.35
2022-09-23T02:28:19.616Z,99604.55
2022-09-23T02:31:00.986Z,99599.44
2022-09-23T02:33:40.583Z,99599.88
2022-09-23T02:36:16.410Z,99600.77
2022-09-23T02:38:54.633Z,99601.04
2022-09-23T02:41:32.401Z,99599.02
2022-09-23T02:44:07.683Z,99598.11
2022-09-23T02:46:39.861Z,99595.61
2022-09-23T02:49:15.288Z,99594.38
2022-09-23T02:51:46.657Z,99592.19
2022-09-23T02:54:20.476Z,99587.05
2022-09-23T02:56:50.126Z,99589.77
2022-09-23T02:59:22.986Z,99590.29
2022-09-23T03:02:14.299Z,99591.97
2022-09-23T03:04:54.862Z,99589.55
2022-09-23T03:07:34.591Z,99591.94
2022-09-23T03:10:14.218Z,99585.73
2022-09-23T03:12:53.122Z,99586.45
2022-09-23T03:15:35.369Z,99583.08
2022-09-23T03:18:15.613Z,99582.85
2022-09-23T03:20:51.117Z,99581.99
2022-09-23T03:23:27.488Z,99584.64
2022-09-23T03:26:01.399Z,99581.47
2022-09-23T03:28:33.687Z,99577.93
2022-09-23T03:31:05.355Z,99579.01
2022-09-23T03:33:38.445Z,99576.20
2022-09-23T03:36:42.829Z,99580.56
2022-09-23T03:39:21.609Z,99581.70
2022-09-23T03:41:54.720Z,99581.35
2022-09-23T03:44:29.048Z,99576.73
2022-09-23T03:47:04.552Z,99579.41
2022-09-23T03:49:39.671Z,99578.78
2022-09-23T03:52:11.113Z,99579.80
2022-09-23T03:54:42.144Z,99580.39
2022-09-23T03:57:14.339Z,99579.11
2022-09-23T03:59:45.363Z,99567.80
2022-09-23T04:02:16.615Z,99572.38
2022-09-23T04:04:47.961Z,99573.29
2022-09-23T04:07:19.124Z,99568.49
2022-09-23T04:09:49.928Z,99571.09
2022-09-23T04:12:20.636Z,99573.56
2022-09-23T04:14:51.323Z,99571.44
2022-09-23T04:17:23.010Z,99572.09
2022-09-23T04:19:53.821Z,99569.64
2022-09-23T04:22:24.556Z,99571.05
2022-09-23T04:24:55.276Z,99570.50
2022-09-23T04:27:25.932Z,99566.09
2022-09-23T04:29:56.669Z,99569.77
2022-09-23T04:32:27.472Z,99567.41
2022-09-23T04:34:58.148Z,99566.67
2022-09-23T04:37:29.504Z,99568.36
2022-09-23T04:40:00.526Z,99563.08
2022-09-23T04:42:32.652Z,99561.98
2022-09-23T04:45:04.715Z,99562.59
2022-09-23T04:47:35.823Z,99558.70
2022-09-23T04:50:07.839Z,99560.13
2022-09-23T04:52:38.528Z,99564.44
2022-09-23T04:55:11.685Z,99572.08
2022-09-23T04:57:42.366Z,99577.73
2022-09-23T05:00:15.426Z,99576.78
2022-09-23T05:02:47.768Z,99581.10
2022-09-23T05:05:21.335Z,99579.09
2022-09-23T05:07:52.477Z,99578.73
2022-09-23T05:10:23.528Z,99581.01
2022-09-23T05:12:57.200Z,99584.88
2022-09-23T05:15:28.269Z,99587.29
2022-09-23T05:18:02.611Z,99587.46
2022-09-23T05:20:33.271Z,99589.90
2022-09-23T05:23:03.925Z,99582.42
2022-09-23T05:25:38.169Z,99586.52
2022-09-23T05:28:09.546Z,99585.78
2022-09-23T05:30:40.222Z,99583.96
2022-09-23T05:33:11.061Z,99595.48
2022-09-23T05:35:47.172Z,99592.64
2022-09-23T05:38:18.481Z,99592.88
2022-09-23T05:40:55.807Z,99591.88
2022-09-23T05:43:26.960Z,99589.37
2022-09-23T05:46:08.418Z,99590.05
2022-09-23T05:48:40.347Z,99587.70
2022-09-23T05:51:14.704Z,99583.33
2022-09-23T05:53:46.076Z,99585.21
2022-09-23T05:56:18.230Z,99584.95
2022-09-23T05:58:52.494Z,99578.71
2022-09-23T06:01:26.056Z,99580.73
2022-09-23T06:03:58.192Z,99578.02
2022-09-23T06:06:31.063Z,99573.65
2022-09-23T06:09:02.837Z,99576.19
2022-09-23T06:11:34.615Z,99574.38
2022-09-23T06:14:05.915Z,99574.61
2022-09-23T06:16:37.674Z,99576.23
2022-09-23T06:19:08.423Z,99578.36
2022-09-23T06:21:40.688Z,99575.52
2022-09-23T06:24:17.457Z,99574.77
2022-09-23T06:26:50.441Z,99579.24
2022-09-23T06:29:21.149Z,99578.72
2022-09-23T06:31:53.180Z,99579.84
2022-09-23T06:34:23.860Z,99583.48
2022-09-23T06:36:55.695Z,99580.27
2022-09-23T06:39:26.776Z,99581.71
2022-09-23T06:41:57.497Z,99580.35
2022-09-23T06:44:28.872Z,99583.75
2022-09-23T06:46:59.753Z,99585.37
2022-09-23T06:49:31.617Z,99584.87
2022-09-23T06:52:02.455Z,99580.65
2022-09-23T06:54:33.181Z,99581.46
2022-09-23T06:57:03.990Z,99585.11
2022-09-23T06:59:35.344Z,99583.65
2022-09-23T07:02:06.285Z,99587.98
2022-09-23T07:04:37.127Z,99589.29
2022-09-23T07:07:08.479Z,99587.96
2022-09-23T07:09:39.420Z,99587.67
2022-09-23T07:12:10.569Z,99588.42
2022-09-23T07:14:41.315Z,99586.63
2022-09-23T07:17:12.702Z,99584.02
2022-09-23T07:19:44.079Z,99581.25
2022-09-23T07:22:14.849Z,99582.28
2022-09-23T07:24:46.692Z,99583.90
2022-09-23T07:27:20.113Z,99583.98
2022-09-23T07:29:51.981Z,99583.39
2022-09-23T07:32:23.967Z,99584.08
2022-09-23T07:34:55.029Z,99586.20
2022-09-23T07:37:25.758Z,99588.86
2022-09-23T07:39:57.286Z,99584.09
2022-09-23T07:42:28.118Z,99590.59
2022-09-23T07:44:58.794Z,99587.52
2022-09-23T07:47:30.005Z,99591.17
2022-09-23T07:50:01.117Z,99591.36
2022-09-23T07:52:31.891Z,99591.91
2022-09-23T07:55:02.700Z,99591.67
2022-09-23T07:57:34.183Z,99590.00
2022-09-23T08:00:06.368Z,99588.98
2022-09-23T08:02:37.066Z,99593.35
2022-09-23T08:05:09.522Z,99589.88
2022-09-23T08:07:40.307Z,99589.59
2022-09-23T08:10:11.853Z,99586.04
2022-09-23T08:12:42.492Z,99585.58
2022-09-23T08:15:13.977Z,99582.98
2022-09-23T08:17:45.133Z,99585.57
2022-09-23T08:20:35.907Z,99584.79
2022-09-23T08:23:09.601Z,99582.38
2022-09-23T08:25:40.524Z,99580.05
2022-09-23T08:28:11.894Z,99580.67
2022-09-23T08:30:43.417Z,99578.92
2022-09-23T08:33:15.383Z,99575.20
2022-09-23T08:35:47.419Z,99575.77
2022-09-23T08:38:18.048Z,99575.15
2022-09-23T08:40:50.882Z,99571.09
2022-09-23T08:43:26.563Z,99568.05
2022-09-23T08:46:00.976Z,99567.13
2022-09-23T08:48:34.620Z,99565.21
2022-09-23T08:51:09.380Z,99557.55
2022-09-23T08:53:42.297Z,99553.73
2022-09-23T08:56:17.215Z,99553.90
2022-09-23T08:59:01.580Z,99552.52
2022-09-23T09:01:41.281Z,99550.64
2022-09-23T09:04:20.158Z,99546.23
2022-09-23T09:07:03.405Z,99554.55
2022-09-23T09:09:49.249Z,99547.27
2022-09-23T09:12:25.441Z,99546.76
2022-09-23T09:15:03.103Z,99548.54
2022-09-23T09:17:39.884Z,99550.67
2022-09-23T09:20:25.053Z,99549.75
2022-09-23T09:23:00.668Z,99547.03
2022-09-23T09:25:50.582Z,99546.39
2022-09-23T09:28:25.894Z,99548.97
2022-09-23T09:31:02.662Z,99549.50
2022-09-23T09:33:44.262Z,99547.91
2022-09-23T09:36:24.836Z,99542.36
2022-09-23T09:38:57.213Z,99540.54
2022-09-23T09:41:31.467Z,99534.29
2022-09-23T09:44:11.052Z,99531.70
2022-09-23T09:47:01.760Z,99526.23
2022-09-23T09:49:41.990Z,99526.11
2022-09-23T09:52:21.335Z,99524.92
2022-09-23T09:54:52.801Z,99518.02
2022-09-23T09:57:35.838Z,99516.30
2022-09-23T10:00:36.530Z,99511.33
2022-09-23T10:03:31.585Z,99515.27
2022-09-23T10:06:13.758Z,99512.80
2022-09-23T10:08:52.803Z,99508.36
2022-09-23T10:11:23.933Z,99507.06
2022-09-23T10:14:09.401Z,99506.55
2022-09-23T10:16:41.762Z,99498.46
2022-09-23T10:19:26.109Z,99498.16
2022-09-23T10:22:00.327Z,99496.52
2022-09-23T10:24:34.292Z,99491.34
2022-09-23T10:27:09.119Z,99489.28
2022-09-23T10:29:49.879Z,99490.94
2022-09-23T10:32:30.854Z,99489.50
2022-09-23T10:35:13.412Z,99488.17
2022-09-23T10:37:46.859Z,99487.32
2022-09-23T10:40:41.141Z,99484.01
2022-09-23T10:43:46.553Z,99478.37
2022-09-23T10:46:42.759Z,99482.23
2022-09-23T10:49:28.797Z,99477.81
2022-09-23T10:52:04.703Z,99479.30
2022-09-23T10:54:49.368Z,99479.42
2022-09-23T10:57:40.597Z,99478.41
2022-09-23T11:00:24.911Z,99468.17
2022-09-23T11:03:26.123Z,99467.52
2022-09-23T11:06:13.094Z,99463.49
2022-09-23T11:08:58.752Z,99458.14
2022-09-23T11:11:42.325Z,99462.29
2022-09-23T11:14:38.771Z,99456.99
2022-09-23T11:17:27.121Z,99451.89
2022-09-23T11:20:34.142Z,99447.73
2022-09-23T11:23:20.365Z,99447.27
2022-09-23T11:26:01.480Z,99441.14
2022-09-23T11:28:45.499Z,99438.05
2022-09-23T11:31:28.326Z,99436.13
2022-09-23T11:34:12.168Z,99431.24
2022-09-23T11:36:47.801Z,99424.79
2022-09-23T11:39:22.571Z,99420.50
2022-09-23T11:41:57.813Z,99418.56
2022-09-23T11:44:33.219Z,99419.23
2022-09-23T11:47:08.823Z,99411.25
2022-09-23T11:49:42.361Z,99410.98
2022-09-23T11:52:19.780Z,99403.46
2022-09-23T11:54:55.939Z,99409.27
2022-09-23T11:57:43.102Z,99403.35
2022-09-23T12:00:19.227Z,99397.63
2022-09-23T12:03:05.467Z,99395.23
2022-09-23T12:05:40.608Z,99386.55
2022-09-23T12:08:23.288Z,99388.70
2022-09-23T12:10:59.072Z,99384.92
2022-09-23T12:13:39.059Z,99390.92
2022-09-23T12:16:30.677Z,99383.06
2022-09-23T12:19:13.433Z,99382.21
2022-09-23T12:22:03.051Z,99377.02
2022-09-23T12:24:48.981Z,99375.36
2022-09-23T12:27:24.228Z,99373.70
2022-09-23T12:29:59.954Z,99370.65
2022-09-23T12:32:31.410Z,99372.89
2022-09-23T12:35:02.867Z,99366.86
2022-09-23T12:37:38.205Z,99366.44
2022-09-23T12:40:21.799Z,99364.55
2022-09-23T12:42:53.091Z,99358.95
2022-09-23T12:45:39.989Z,99355.65
2022-09-23T12:48:37.955Z,99352.64
2022-09-23T12:51:17.960Z,99350.08
2022-09-23T12:54:12.078Z,99345.78
2022-09-23T12:57:10.853Z,99342.64
2022-09-23T12:59:59.785Z,99344.10
2022-09-23T13:02:40.178Z,99340.19
2022-09-23T13:05:40.988Z,99335.79
2022-09-23T13:08:17.761Z,99331.31
2022-09-23T13:10:53.650Z,99324.90
2022-09-23T13:13:31.820Z,99324.89
2022-09-23T13:16:20.627Z,99320.08
2022-09-23T13:18:56.528Z,99310.79
2022-09-23T13:22:09.287Z,99305.23
2022-09-23T13:24:55.723Z,99303.91
2022-09-23T13:27:31.761Z,99299.53
2022-09-23T13:30:07.826Z,99299.80
2022-09-23T13:32:51.696Z,99297.66
2022-09-23T13:35:31.811Z,99294.92
2022-09-23T13:38:12.717Z,99281.77
2022-09-23T13:40:46.520Z,99278.38
2022-09-23T13:43:21.106Z,99275.79
2022-09-23T13:45:52.982Z,99268.14
2022-09-23T13:48:27.204Z,99261.43
2022-09-23T13:50:58.249Z,99261.89
2022-09-23T13:53:32.376Z,99259.30
2022-09-23T13:56:06.103Z,99258.31
2022-09-23T13:58:36.273Z,99254.04
2022-09-23T14:01:11.041Z,99255.95
2022-09-23T14:03:41.996Z,99252.60
2022-09-23T14:06:16.495Z,99251.26
2022-09-23T14:08:50.241Z,99251.49
2022-09-23T14:11:20.034Z,99249.10
2022-09-23T14:13:55.152Z,99247.50
2022-09-23T14:16:28.222Z,99244.86
2022-09-23T14:19:01.737Z,99248.89
2022-09-23T14:21:35.435Z,99246.69
2022-09-23T14:24:13.517Z,99245.76
2022-09-23T14:26:46.936Z,99239.61
2022-09-23T14:29:21.017Z,99240.35
2022-09-23T14:32:00.768Z,99239.45
2022-09-23T14:34:43.441Z,99233.92
2022-09-23T14:37:43.012Z,99230.99
2022-09-23T14:40:17.322Z,99227.64
2022-09-23T14:42:51.542Z,99223.77
2022-09-23T14:45:25.560Z,99222.02
2022-09-23T14:48:00.483Z,99218.79
2022-09-23T14:50:47.411Z,99215.80
2022-09-23T14:53:37.203Z,99214.34
2022-09-23T14:56:20.442Z,99206.65
2022-09-23T14:58:54.585Z,99207.59
2022-09-23T15:01:35.126Z,99205.30
2022-09-23T15:04:16.275Z,99202.19
2022-09-23T15:06:52.034Z,99200.54
2022-09-23T15:09:30.489Z,99199.80
2022-09-23T15:12:04.171Z,99199.66
2022-09-23T15:14:41.008Z,99198.06
2022-09-23T15:17:34.385Z,99196.60
2022-09-23T15:20:10.084Z,99198.21
2022-09-23T15:22:48.412Z,99198.98
2022-09-23T15:25:22.636Z,99197.44
2022-09-23T15:28:03.137Z,99193.63
2022-09-23T15:30:36.363Z,99193.60
2022-09-23T15:33:09.074Z,99197.40
2022-09-23T15:35:44.140Z,99196.85
2022-09-23T15:38:17.650Z,99191.52
2022-09-23T15:40:48.931Z,99188.33
2022-09-23T15:43:22.077Z,99188.14
2022-09-23T15:45:54.416Z,99181.70
2022-09-23T15:48:28.893Z,99181.27
2022-09-23T15:51:04.068Z,99182.86
2022-09-23T15:53:35.510Z,99183.98
2022-09-23T15:56:06.934Z,99184.98
2022-09-23T15:58:37.918Z,99184.52
2022-09-23T16:01:14.635Z,99187.14
2022-09-23T16:03:45.494Z,99190.68
2022-09-23T16:06:16.486Z,99185.70
2022-09-23T16:08:49.020Z,99182.55
2022-09-23T16:11:21.916Z,99182.89
2022-09-23T16:13:53.086Z,99174.06
2022-09-23T16:16:24.231Z,99186.52
2022-09-23T16:18:55.666Z,99187.02
2022-09-23T16:21:28.783Z,99180.33
2022-09-23T16:23:59.680Z,99183.48
2022-09-23T16:26:32.816Z,99180.52
2022-09-23T16:29:04.146Z,99178.04
2022-09-23T16:31:36.383Z,99180.77
2022-09-23T16:34:07.647Z,99179.63
2022-09-23T16:36:42.422Z,99177.00
2022-09-23T16:39:14.859Z,99174.61
2022-09-23T16:41:46.048Z,99177.83
2022-09-23T16:44:17.045Z,99179.38
2022-09-23T16:46:48.044Z,99179.52
2022-09-23T16:49:18.728Z,99181.16
2022-09-23T16:51:49.628Z,99178.60
2022-09-23T16:54:20.611Z,99177.54
2022-09-23T16:56:51.936Z,99168.58
2022-09-23T16:59:22.900Z,99169.31
2022-09-23T17:02:11.197Z,99162.81
2022-09-23T17:04:42.014Z,99162.48
2022-09-23T17:07:12.834Z,99159.09
2022-09-23T17:09:43.801Z,99159.25
2022-09-23T17:12:21.207Z,99156.46
2022-09-23T17:14:52.551Z,99158.38
2022-09-23T17:17:23.526Z,99150.63
2022-09-23T17:19:54.484Z,99154.61
2022-09-23T17:22:25.322Z,99152.95
2022-09-23T17:24:56.148Z,99149.65
2022-09-23T17:27:27.311Z,99150.37
2022-09-23T17:29:58.208Z,99150.91
2022-09-23T17:32:29.325Z,99147.06
2022-09-23T17:35:04.571Z,99148.23
2022-09-23T17:37:35.700Z,99149.06
2022-09-23T17:40:08.088Z,99143.51
2022-09-23T17:42:42.758Z,99141.08
2022-09-23T17:45:13.888Z,99142.29
2022-09-23T17:47:54.953Z,99141.54
2022-09-23T17:50:25.776Z,99146.02
2022-09-23T17:52:56.974Z,99137.11
2022-09-23T17:55:27.796Z,99137.41
2022-09-23T17:57:58.666Z,99142.10
2022-09-23T18:00:29.574Z,99140.33
2022-09-23T18:03:00.386Z,99140.60
2022-09-23T18:05:31.202Z,99142.85
2022-09-23T18:08:05.894Z,99143.09
2022-09-23T18:10:37.081Z,99145.05
2022-09-23T18:13:08.246Z,99143.85
2022-09-23T18:15:40.363Z,99142.27
2022-09-23T18:18:11.199Z,99140.48
2022-09-23T18:20:41.998Z,99149.95
2022-09-23T18:23:13.480Z,99150.67
2022-09-23T18:25:44.299Z,99148.80
2022-09-23T18:28:15.923Z,99148.52
2022-09-23T18:30:56.892Z,99147.80
2022-09-23T18:33:28.007Z,99149.29
2022-09-23T18:36:02.372Z,99144.59
2022-09-23T18:38:33.856Z,99143.22
2022-09-23T18:41:04.843Z,99141.63
2022-09-23T18:43:40.761Z,99143.72
2022-09-23T18:46:16.589Z,99141.73
2022-09-23T18:49:07.889Z,99144.91
2022-09-23T18:51:42.125Z,99143.55
2022-09-23T18:54:13.404Z,99143.32
2022-09-23T18:56:46.470Z,99148.94
2022-09-23T18:59:20.517Z,99152.01
2022-09-23T19:01:55.513Z,99151.59
2022-09-23T19:04:28.227Z,99146.55
2022-09-23T19:06:59.128Z,99151.78
2022-09-23T19:09:29.984Z,99152.10
2022-09-23T19:12:02.569Z,99159.09
2022-09-23T19:14:33.983Z,99151.77
2022-09-23T19:17:05.163Z,99157.34
2022-09-23T19:19:35.995Z,99159.90
2022-09-23T19:22:07.127Z,99153.70
2022-09-23T19:24:38.117Z,99161.11
2022-09-23T19:27:09.076Z,99157.91
2022-09-23T19:29:40.398Z,99152.33
2022-09-23T19:32:11.418Z,99156.39
2022-09-23T19:34:43.757Z,99155.55
2022-09-23T19:37:16.683Z,99150.30
2022-09-23T19:39:47.785Z,99153.02
2022-09-23T19:42:18.673Z,99147.77
2022-09-23T19:44:50.343Z,99150.45
2022-09-23T19:47:21.170Z,99147.33
2022-09-23T19:49:52.009Z,99153.02
2022-09-23T19:52:22.976Z,99153.13
2022-09-23T19:54:53.838Z,99157.81
2022-09-23T19:57:27.696Z,99154.16
2022-09-23T19:59:58.544Z,99148.33
2022-09-23T20:02:29.439Z,99147.15
2022-09-23T20:05:00.251Z,99146.66
2022-09-23T20:07:30.933Z,99145.16
2022-09-23T20:10:02.007Z,99153.66
2022-09-23T20:12:35.461Z,99157.65
2022-09-23T20:15:07.468Z,99157.88
2022-09-23T20:17:38.518Z,99159.27
2022-09-23T20:20:11.636Z,99160.48
2022-09-23T20:22:42.773Z,99159.48
2022-09-23T20:25:14.425Z,99161.26
2022-09-23T20:27:49.534Z,99162.35
2022-09-23T20:30:23.221Z,99164.84
2022-09-23T20:32:53.925Z,99168.96
2022-09-23T20:35:25.135Z,99156.80
2022-09-23T20:37:56.059Z,99156.09
2022-09-23T20:40:27.159Z,99156.29
2022-09-23T20:42:58.549Z,99158.02
2022-09-23T20:45:29.324Z,99158.58
2022-09-23T20:48:01.700Z,99154.27
2022-09-23T20:50:32.397Z,99152.11
2022-09-23T20:53:03.278Z,99156.29
2022-09-23T20:55:34.018Z,99157.09
2022-09-23T20:58:05.125Z,99151.23
2022-09-23T21:00:36.299Z,99147.45
2022-09-23T21:03:07.154Z,99142.30
2022-09-23T21:05:42.131Z,99144.23
2022-09-23T21:08:12.923Z,99139.80
2022-09-23T21:10:43.635Z,99139.80
2022-09-23T21:13:14.405Z,99132.26
2022-09-23T21:15:45.179Z,99132.62
2022-09-23T21:18:20.434Z,99129.80
2022-09-23T21:21:00.491Z,99133.87
2022-09-23T21:23:33.300Z,99138.16
2022-09-23T21:26:04.972Z,99131.77
2022-09-23T21:28:37.356Z,99129.86
2022-09-23T21:31:09.687Z,99133.44
2022-09-23T21:33:40.776Z,99128.46
2022-09-23T21:36:13.257Z,99128.98
2022-09-23T21:38:43.890Z,99130.61
2022-09-23T21:41:14.824Z,99127.65
2022-09-23T21:43:45.766Z,99130.50
2022-09-23T21:46:20.094Z,99129.45
2022-09-23T21:48:53.828Z,99130.52
2022-09-23T21:51:26.844Z,99125.73
2022-09-23T21:53:59.022Z,99120.86
2022-09-23T21:56:32.864Z,99127.36
2022-09-23T21:59:04.018Z,99125.60
2022-09-23T22:01:36.580Z,99128.55
2022-09-23T22:04:13.348Z,99129.33
2022-09-23T22:06:45.263Z,99130.61
2022-09-23T22:09:18.043Z,99133.47
2022-09-23T22:12:09.606Z,99129.41
2022-09-23T22:14:40.627Z,99132.30
2022-09-23T22:17:14.532Z,99130.64
2022-09-23T22:19:47.487Z,99128.55
2022-09-23T22:22:19.448Z,99129.61
2022-09-23T22:24:50.174Z,99131.50
2022-09-23T22:27:21.629Z,99128.98
2022-09-23T22:30:15.342Z,99127.90
2022-09-23T22:32:46.841Z,99127.73
2022-09-23T22:35:20.447Z,99127.01
2022-09-23T22:37:51.083Z,99128.02
2022-09-23T22:40:24.170Z,99126.11
2022-09-23T22:42:55.477Z,99122.09
2022-09-23T22:45:26.570Z,99125.03
2022-09-23T22:47:57.192Z,99121.54
2022-09-23T22:50:28.325Z,99119.75
2022-09-23T22:53:00.109Z,99117.54
2022-09-23T22:55:30.953Z,99112.45
2022-09-23T22:58:15.564Z,99107.16
2022-09-23T23:00:54.065Z,99104.98
2022-09-23T23:03:26.586Z,99100.77
2022-09-23T23:06:00.284Z,99103.06
2022-09-23T23:08:32.105Z,99106.65
2022-09-23T23:11:07.300Z,99100.08
2022-09-23T23:13:39.290Z,99099.20
2022-09-23T23:16:12.419Z,99094.70
2022-09-23T23:18:45.518Z,99093.77
2022-09-23T23:21:18.559Z,99090.15
2022-09-23T23:23:51.594Z,99085.91
2022-09-23T23:26:24.630Z,99082.61
2022-09-23T23:28:56.763Z,99081.52
2022-09-23T23:31:29.023Z,99080.98
2022-09-23T23:34:00.100Z,99078.39
2022-09-23T23:36:31.419Z,99079.27
2022-09-23T23:39:01.984Z,99079.92
2022-09-23T23:41:32.845Z,99083.45
2022-09-23T23:44:04.126Z,99082.01
2022-09-23T23:46:37.393Z,99086.79
2022-09-23T23:49:08.563Z,99087.73
2022-09-23T23:51:39.173Z,99084.84
2022-09-23T23:54:10.461Z,99084.34
2022-09-23T23:56:41.274Z,99082.37
2022-09-23T23:59:12.204Z,99084.02
